Time;durP1;ratioP1;P1;durP2;ratioP2;P2;SDS_P1;SDS_P2;PMS_P1;PMS_P2;Temp;Humidity;BMP_temperature;BMP_pressure;BME280_temperature;BME280_humidity;BME280_pressure;Samples;Min_cycle;Max_cycle;Signal;HPM_P1;HPM_P2
2023/01/09 00:01:55;;;;;;;;;;;6.80;99.90;;;;;;5135104;27;19919;-46
2023/01/09 00:04:21;;;;;;;;;;;6.90;99.90;;;;;;5135982;27;19919;-43
2023/01/09 00:06:52;;;;;;;;;;;7.00;99.90;;;;;;5136035;27;20349;-44
2023/01/09 00:09:19;;;;;;;;;;;7.00;99.90;;;;;;5135228;27;19914;-43
2023/01/09 00:11:45;;;;;;;;;;;7.00;99.90;;;;;;5135750;27;20342;-45
2023/01/09 00:14:10;;;;;;;;;;;7.10;99.90;;;;;;5137759;27;19912;-44
2023/01/09 00:16:36;;;;;;;;;;;7.10;99.90;;;;;;5148707;27;19911;-43
2023/01/09 00:19:01;;;;;;;;;;;7.10;99.90;;;;;;5135522;27;19943;-43
2023/01/09 00:21:27;;;;;;;;;;;7.10;99.90;;;;;;5135650;27;19915;-48
2023/01/09 00:23:53;;;;;;;;;;;7.20;99.90;;;;;;5135746;27;19908;-43
2023/01/09 00:26:19;;;;;;;;;;;7.30;99.90;;;;;;5135274;27;19912;-45
2023/01/09 00:28:45;;;;;;;;;;;7.30;99.90;;;;;;5134843;27;19919;-44
2023/01/09 00:31:11;;;;;;;;;;;7.30;99.90;;;;;;5135214;27;20379;-44
2023/01/09 00:33:41;;;;;;;;;;;7.30;99.90;;;;;;5135691;27;19965;-45
2023/01/09 00:36:06;;;;;;;;;;;7.30;99.90;;;;;;5130054;27;20006;-45
2023/01/09 00:38:32;;;;;;;;;;;7.40;99.90;;;;;;5135279;27;19947;-45
2023/01/09 00:40:59;;;;;;;;;;;7.40;99.90;;;;;;5135189;27;19907;-44
2023/01/09 00:43:28;;;;;;;;;;;7.40;99.90;;;;;;5135384;27;19912;-44
2023/01/09 00:45:54;;;;;;;;;;;7.40;99.90;;;;;;5138520;27;20262;-45
2023/01/09 00:48:25;;;;;;;;;;;7.40;99.90;;;;;;5148374;27;20040;-45
2023/01/09 00:50:51;;;;;;;;;;;7.50;99.90;;;;;;5135239;27;19907;-43
2023/01/09 00:53:19;;;;;;;;;;;7.50;99.90;;;;;;5146179;27;20289;-42
2023/01/09 00:55:44;;;;;;;;;;;7.40;99.90;;;;;;5134890;27;20286;-44
2023/01/09 00:58:10;;;;;;;;;;;7.30;99.90;;;;;;5134389;27;19919;-45
2023/01/09 01:00:35;;;;;;;;;;;7.30;99.90;;;;;;5134747;27;20010;-44
2023/01/09 01:03:01;;;;;;;;;;;7.30;99.90;;;;;;5155781;27;19911;-43
2023/01/09 01:08:15;;;;;;;;;;;7.20;99.90;;;;;;5140659;27;20319;-43
2023/01/09 01:10:41;;;;;;;;;;;7.20;99.90;;;;;;5133730;27;20422;-44
2023/01/09 01:13:06;;;;;;;;;;;7.10;99.90;;;;;;5134471;27;19936;-44
2023/01/09 01:15:32;;;;;;;;;;;7.10;99.90;;;;;;5134744;27;20030;-43
2023/01/09 01:17:58;;;;;;;;;;;7.10;99.90;;;;;;5133891;27;19947;-44
2023/01/09 01:20:23;;;;;;;;;;;7.00;99.90;;;;;;5149329;27;19911;-43
2023/01/09 01:22:49;;;;;;;;;;;7.00;99.90;;;;;;5141870;27;19926;-42
2023/01/09 01:25:15;;;;;;;;;;;7.00;99.90;;;;;;5133637;27;19918;-43
2023/01/09 01:27:41;;;;;;;;;;;7.00;99.90;;;;;;5134351;27;19954;-44
2023/01/09 01:30:08;;;;;;;;;;;7.00;99.90;;;;;;5134438;27;19946;-43
2023/01/09 01:32:33;;;;;;;;;;;7.00;99.90;;;;;;5133275;27;19919;-45
2023/01/09 01:34:59;;;;;;;;;;;6.90;99.90;;;;;;5124045;27;19918;-43
2023/01/09 01:37:24;;;;;;;;;;;6.90;99.90;;;;;;5124548;27;20362;-43
2023/01/09 01:39:50;;;;;;;;;;;6.90;99.90;;;;;;5128860;27;19956;-46
2023/01/09 01:42:15;;;;;;;;;;;6.90;99.90;;;;;;5133994;27;19930;-44
2023/01/09 01:45:01;;;;;;;;;;;6.80;99.90;;;;;;5123932;27;19914;-45
2023/01/09 01:47:29;;;;;;;;;;;6.90;99.90;;;;;;5131159;27;19911;-44
2023/01/09 01:49:55;;;;;;;;;;;6.80;99.90;;;;;;5154025;27;20358;-44
2023/01/09 01:52:21;;;;;;;;;;;6.80;99.90;;;;;;5142154;27;19926;-45
2023/01/09 01:54:47;;;;;;;;;;;6.80;99.90;;;;;;5149416;27;19919;-47
2023/01/09 01:57:13;;;;;;;;;;;6.70;99.90;;;;;;5153485;27;19918;-46
2023/01/09 01:59:48;;;;;;;;;;;6.80;99.90;;;;;;5137796;27;19912;-45
2023/01/09 02:02:17;;;;;;;;;;;6.80;99.90;;;;;;5148574;27;19964;-43
2023/01/09 02:04:43;;;;;;;;;;;6.80;99.90;;;;;;5154223;27;19934;-43
2023/01/09 02:07:09;;;;;;;;;;;6.80;99.90;;;;;;5134428;27;20285;-45
2023/01/09 02:09:34;;;;;;;;;;;6.80;99.90;;;;;;5133762;27;19911;-45
2023/01/09 02:12:00;;;;;;;;;;;6.80;99.90;;;;;;5132729;27;20255;-45
2023/01/09 02:14:30;;;;;;;;;;;6.80;99.90;;;;;;5132875;27;19954;-46
2023/01/09 02:16:56;;;;;;;;;;;6.90;99.90;;;;;;5133556;27;20157;-48
2023/01/09 02:19:40;;;;;;;;;;;6.90;99.90;;;;;;5128751;28;20022;-44
2023/01/09 02:22:08;;;;;;;;;;;6.90;99.90;;;;;;5127531;27;19911;-47
2023/01/09 02:24:42;;;;;;;;;;;7.00;99.90;;;;;;5134589;27;19911;-46
2023/01/09 02:27:11;;;;;;;;;;;7.00;99.90;;;;;;5133445;27;19911;-45
2023/01/09 02:29:45;;;;;;;;;;;7.00;99.90;;;;;;5133889;27;19915;-48
2023/01/09 02:32:18;;;;;;;;;;;7.00;99.90;;;;;;5147578;27;19919;-46
2023/01/09 02:35:02;;;;;;;;;;;7.00;99.90;;;;;;5154311;27;19911;-44
2023/01/09 02:37:43;;;;;;;;;;;7.00;99.90;;;;;;5153645;27;19915;-45
2023/01/09 02:40:08;;;;;;;;;;;7.10;99.90;;;;;;5153586;27;20377;-47
2023/01/09 02:42:35;;;;;;;;;;;7.10;99.90;;;;;;5152951;27;19961;-45
2023/01/09 02:45:00;;;;;;;;;;;7.10;99.90;;;;;;5151767;27;20259;-45
2023/01/09 02:47:36;;;;;;;;;;;7.10;99.90;;;;;;5153401;27;19975;-46
2023/01/09 02:50:03;;;;;;;;;;;7.00;99.90;;;;;;5139104;27;19918;-49
2023/01/09 02:52:47;;;;;;;;;;;7.00;99.90;;;;;;5145183;27;20009;-44
2023/01/09 02:55:25;;;;;;;;;;;6.90;99.90;;;;;;5138495;27;19965;-45
2023/01/09 02:57:50;;;;;;;;;;;6.90;99.90;;;;;;5132375;27;19915;-47
2023/01/09 03:00:18;;;;;;;;;;;6.80;99.90;;;;;;5133113;27;19923;-44
2023/01/09 03:02:53;;;;;;;;;;;6.80;99.90;;;;;;5133352;27;20018;-45
2023/01/09 03:05:27;;;;;;;;;;;6.70;99.90;;;;;;5133122;28;19950;-44
2023/01/09 03:07:59;;;;;;;;;;;6.70;99.90;;;;;;5153193;27;19915;-45
2023/01/09 03:10:27;;;;;;;;;;;6.70;99.90;;;;;;5153096;27;19913;-45
2023/01/09 03:12:53;;;;;;;;;;;6.60;99.90;;;;;;5133147;27;20316;-44
2023/01/09 03:15:25;;;;;;;;;;;6.50;99.90;;;;;;5133070;27;20361;-45
2023/01/09 03:17:51;;;;;;;;;;;6.50;99.90;;;;;;5132102;27;19961;-46
2023/01/09 03:20:19;;;;;;;;;;;6.40;99.90;;;;;;5133027;28;19917;-45
2023/01/09 03:22:53;;;;;;;;;;;6.40;99.90;;;;;;5133332;27;20354;-46
2023/01/09 03:25:19;;;;;;;;;;;6.30;99.90;;;;;;5148799;27;19911;-45
2023/01/09 03:27:44;;;;;;;;;;;6.30;99.90;;;;;;5156721;27;19934;-45
2023/01/09 03:30:10;;;;;;;;;;;6.20;99.90;;;;;;5157432;27;19960;-44
2023/01/09 03:32:36;;;;;;;;;;;6.20;99.90;;;;;;5156095;27;19926;-43
2023/01/09 03:35:01;;;;;;;;;;;6.20;99.90;;;;;;5157436;27;20312;-45
2023/01/09 03:37:26;;;;;;;;;;;6.10;99.90;;;;;;5152401;27;19919;-48
2023/01/09 03:39:52;;;;;;;;;;;6.10;99.90;;;;;;5118711;27;20002;-44
2023/01/09 03:42:17;;;;;;;;;;;6.00;99.90;;;;;;5137318;27;19911;-46
2023/01/09 03:44:43;;;;;;;;;;;6.00;99.90;;;;;;5136309;27;19919;-45
2023/01/09 03:47:08;;;;;;;;;;;6.00;99.90;;;;;;5135417;27;20002;-46
2023/01/09 03:49:34;;;;;;;;;;;6.00;99.90;;;;;;5136415;27;19907;-43
2023/01/09 03:51:59;;;;;;;;;;;5.90;99.90;;;;;;5142445;27;19923;-46
2023/01/09 03:54:25;;;;;;;;;;;5.90;99.90;;;;;;5136014;27;19930;-48
2023/01/09 03:56:50;;;;;;;;;;;5.90;99.90;;;;;;5136076;27;20006;-45
2023/01/09 03:59:16;;;;;;;;;;;5.90;99.90;;;;;;5135204;27;20002;-45
2023/01/09 04:01:41;;;;;;;;;;;5.80;99.90;;;;;;5136020;27;19964;-44
2023/01/09 04:04:07;;;;;;;;;;;5.80;99.90;;;;;;5136167;27;19908;-46
2023/01/09 04:06:32;;;;;;;;;;;5.70;99.90;;;;;;5135129;27;20765;-46
2023/01/09 04:08:57;;;;;;;;;;;5.70;99.90;;;;;;5135871;27;19911;-45
2023/01/09 04:11:23;;;;;;;;;;;5.70;99.90;;;;;;5135749;27;19919;-45
2023/01/09 04:13:48;;;;;;;;;;;5.70;99.90;;;;;;5135119;27;19930;-43
2023/01/09 04:16:14;;;;;;;;;;;5.60;99.90;;;;;;5135913;27;20361;-46
2023/01/09 04:18:39;;;;;;;;;;;5.70;99.90;;;;;;5135871;27;19957;-44
2023/01/09 04:21:05;;;;;;;;;;;5.70;99.90;;;;;;5134920;27;20341;-45
2023/01/09 04:23:30;;;;;;;;;;;5.70;99.90;;;;;;5149785;27;19911;-44
2023/01/09 04:25:56;;;;;;;;;;;5.80;99.90;;;;;;5156090;27;20437;-48
2023/01/09 04:28:21;;;;;;;;;;;5.80;99.90;;;;;;5155464;27;19907;-44
2023/01/09 04:30:47;;;;;;;;;;;5.80;99.90;;;;;;5155462;27;19911;-46
2023/01/09 04:33:12;;;;;;;;;;;5.80;99.90;;;;;;5156273;27;19913;-45
2023/01/09 04:35:38;;;;;;;;;;;5.70;99.90;;;;;;5154669;27;19907;-46
2023/01/09 04:38:03;;;;;;;;;;;5.70;99.90;;;;;;5155806;27;19911;-44
2023/01/09 04:40:28;;;;;;;;;;;5.70;99.90;;;;;;5155643;27;19956;-49
2023/01/09 04:42:54;;;;;;;;;;;5.70;99.90;;;;;;5143565;27;19946;-47
2023/01/09 04:45:19;;;;;;;;;;;5.60;99.90;;;;;;5135988;27;19956;-46
2023/01/09 04:47:45;;;;;;;;;;;5.60;99.90;;;;;;5135237;27;19934;-45
2023/01/09 04:50:11;;;;;;;;;;;5.50;99.90;;;;;;5134105;27;20286;-49
2023/01/09 04:52:36;;;;;;;;;;;5.50;99.90;;;;;;5137907;27;20369;-44
2023/01/09 04:55:02;;;;;;;;;;;5.50;99.90;;;;;;5137566;27;19970;-44
2023/01/09 04:57:27;;;;;;;;;;;5.50;99.90;;;;;;5153944;27;19911;-46
2023/01/09 04:59:53;;;;;;;;;;;5.50;99.90;;;;;;5146207;27;19919;-45
2023/01/09 05:02:18;;;;;;;;;;;5.50;99.90;;;;;;5134755;27;20262;-48
2023/01/09 05:04:44;;;;;;;;;;;5.50;99.90;;;;;;5147308;27;19911;-48
2023/01/09 05:07:09;;;;;;;;;;;5.50;99.90;;;;;;5133571;27;20328;-44
2023/01/09 05:09:35;;;;;;;;;;;5.50;99.90;;;;;;5129971;27;20286;-44
2023/01/09 05:12:00;;;;;;;;;;;5.60;99.90;;;;;;5125160;27;19962;-45
2023/01/09 05:14:26;;;;;;;;;;;5.60;99.90;;;;;;5134703;27;19977;-44
2023/01/09 05:16:51;;;;;;;;;;;5.60;99.90;;;;;;5133833;27;19915;-44
2023/01/09 05:19:16;;;;;;;;;;;5.70;99.90;;;;;;5134627;27;19915;-46
2023/01/09 05:21:42;;;;;;;;;;;5.70;99.90;;;;;;5138465;27;20007;-44
2023/01/09 05:24:07;;;;;;;;;;;5.70;99.90;;;;;;5154355;27;20359;-44
2023/01/09 05:26:33;;;;;;;;;;;5.80;99.90;;;;;;5143703;27;19911;-45
2023/01/09 05:28:58;;;;;;;;;;;5.80;99.90;;;;;;5135004;27;19919;-45
2023/01/09 05:31:25;;;;;;;;;;;5.80;99.90;;;;;;5133521;27;19925;-44
2023/01/09 05:33:51;;;;;;;;;;;5.80;99.90;;;;;;5135983;27;19918;-44
2023/01/09 05:36:16;;;;;;;;;;;5.80;99.90;;;;;;5133633;27;20273;-44
2023/01/09 05:38:42;;;;;;;;;;;5.80;99.90;;;;;;5132510;27;20354;-46
2023/01/09 05:41:07;;;;;;;;;;;5.80;99.90;;;;;;5133892;27;19911;-44
2023/01/09 05:43:33;;;;;;;;;;;5.80;99.90;;;;;;5134981;27;19948;-44
2023/01/09 05:45:58;;;;;;;;;;;5.90;99.90;;;;;;5132676;27;20277;-44
2023/01/09 05:48:24;;;;;;;;;;;5.90;99.90;;;;;;5133165;27;19917;-44
2023/01/09 05:50:49;;;;;;;;;;;5.90;99.90;;;;;;5132689;27;20300;-45
2023/01/09 05:53:15;;;;;;;;;;;6.00;99.90;;;;;;5131679;27;19919;-43
2023/01/09 05:55:40;;;;;;;;;;;6.00;99.90;;;;;;5133307;27;19918;-44
2023/01/09 05:58:06;;;;;;;;;;;6.00;99.90;;;;;;5133180;27;20391;-45
2023/01/09 06:00:31;;;;;;;;;;;6.00;99.90;;;;;;5132327;27;19907;-44
2023/01/09 06:02:57;;;;;;;;;;;6.00;99.90;;;;;;5133117;27;20323;-47
2023/01/09 06:05:22;;;;;;;;;;;6.00;99.90;;;;;;5133023;27;20350;-48
2023/01/09 06:07:48;;;;;;;;;;;6.00;99.90;;;;;;5133876;27;20285;-47
2023/01/09 06:10:14;;;;;;;;;;;6.00;99.90;;;;;;5132963;27;20003;-43
2023/01/09 06:12:40;;;;;;;;;;;6.00;99.90;;;;;;5132645;27;19920;-44
2023/01/09 06:15:05;;;;;;;;;;;6.00;99.90;;;;;;5129069;27;19911;-45
2023/01/09 06:17:31;;;;;;;;;;;6.00;99.90;;;;;;5132649;27;19912;-44
2023/01/09 06:19:56;;;;;;;;;;;6.00;99.90;;;;;;5132187;27;19915;-43
2023/01/09 06:22:22;;;;;;;;;;;6.00;99.90;;;;;;5137212;27;19962;-43
2023/01/09 06:24:47;;;;;;;;;;;6.00;99.90;;;;;;5135309;27;19998;-44
2023/01/09 06:27:13;;;;;;;;;;;6.10;99.90;;;;;;5133189;27;19926;-44
2023/01/09 06:29:38;;;;;;;;;;;6.00;99.90;;;;;;5133892;27;19964;-45
2023/01/09 06:32:04;;;;;;;;;;;6.00;99.90;;;;;;5131059;27;19934;-46
2023/01/09 06:34:29;;;;;;;;;;;6.00;99.90;;;;;;5135403;27;19919;-44
2023/01/09 06:36:55;;;;;;;;;;;6.00;99.90;;;;;;5132632;27;19912;-43
2023/01/09 06:39:20;;;;;;;;;;;6.00;99.90;;;;;;5133190;27;20018;-46
2023/01/09 06:41:46;;;;;;;;;;;6.10;99.90;;;;;;5131513;27;19915;-43
2023/01/09 06:44:11;;;;;;;;;;;6.00;99.90;;;;;;5132087;28;19907;-45
2023/01/09 06:46:37;;;;;;;;;;;6.00;99.90;;;;;;5132677;27;19919;-45
2023/01/09 06:49:02;;;;;;;;;;;6.00;99.90;;;;;;5133065;27;19912;-45
2023/01/09 06:51:28;;;;;;;;;;;6.00;99.90;;;;;;5135389;27;20018;-43
2023/01/09 06:53:53;;;;;;;;;;;6.00;99.90;;;;;;5134578;27;19946;-44
2023/01/09 06:56:19;;;;;;;;;;;6.00;99.90;;;;;;5129400;28;19915;-43
2023/01/09 06:58:44;;;;;;;;;;;6.10;99.90;;;;;;5131951;27;19916;-47
2023/01/09 07:01:10;;;;;;;;;;;6.00;99.90;;;;;;5132321;27;20191;-44
2023/01/09 07:03:35;;;;;;;;;;;6.00;99.90;;;;;;5132810;27;19911;-44
2023/01/09 07:06:01;;;;;;;;;;;6.00;99.90;;;;;;5133643;27;20427;-45
2023/01/09 07:08:27;;;;;;;;;;;5.90;99.90;;;;;;5133439;27;19926;-45
2023/01/09 07:10:52;;;;;;;;;;;5.90;99.90;;;;;;5133705;27;20419;-47
2023/01/09 07:13:17;;;;;;;;;;;5.80;99.90;;;;;;5134503;27;20476;-46
2023/01/09 07:15:43;;;;;;;;;;;5.80;99.90;;;;;;5133437;27;19920;-44
2023/01/09 07:18:08;;;;;;;;;;;5.70;99.90;;;;;;5128901;27;19911;-43
2023/01/09 07:20:34;;;;;;;;;;;5.60;99.90;;;;;;5133714;27;19911;-44
2023/01/09 07:22:59;;;;;;;;;;;5.60;99.90;;;;;;5134687;27;20435;-44
2023/01/09 07:25:25;;;;;;;;;;;5.50;99.90;;;;;;5134434;27;19915;-46
2023/01/09 07:27:50;;;;;;;;;;;5.50;99.90;;;;;;5129178;27;19911;-45
2023/01/09 07:30:16;;;;;;;;;;;5.40;99.90;;;;;;5131185;27;20393;-43
2023/01/09 07:32:41;;;;;;;;;;;5.40;99.90;;;;;;5132402;27;20227;-43
2023/01/09 07:35:08;;;;;;;;;;;5.40;99.90;;;;;;5134306;27;19969;-45
2023/01/09 07:37:33;;;;;;;;;;;5.40;99.90;;;;;;5130862;27;19982;-44
2023/01/09 07:39:59;;;;;;;;;;;5.40;99.90;;;;;;5136415;27;19907;-43
2023/01/09 07:42:24;;;;;;;;;;;5.50;99.90;;;;;;5136396;27;20376;-44
2023/01/09 07:44:50;;;;;;;;;;;5.50;99.90;;;;;;5135656;27;19907;-43
2023/01/09 07:47:15;;;;;;;;;;;5.50;99.90;;;;;;5130731;27;19965;-44
2023/01/09 07:49:41;;;;;;;;;;;5.50;99.90;;;;;;5131551;27;19935;-44
2023/01/09 07:52:06;;;;;;;;;;;5.60;99.90;;;;;;5120766;27;20012;-44
2023/01/09 07:54:32;;;;;;;;;;;5.60;99.90;;;;;;5142664;27;19971;-48
2023/01/09 07:56:57;;;;;;;;;;;5.60;99.90;;;;;;5128493;27;19934;-43
2023/01/09 07:59:23;;;;;;;;;;;5.60;99.90;;;;;;5133892;27;19912;-44
2023/01/09 08:01:49;;;;;;;;;;;5.70;99.90;;;;;;5130413;27;19964;-43
2023/01/09 08:04:14;;;;;;;;;;;5.70;99.90;;;;;;5131171;27;19907;-44
2023/01/09 08:06:40;;;;;;;;;;;5.70;99.90;;;;;;5135695;27;20442;-45
2023/01/09 08:09:05;;;;;;;;;;;5.70;99.90;;;;;;5135638;27;20349;-44
2023/01/09 08:11:31;;;;;;;;;;;5.80;99.90;;;;;;5135143;27;20438;-43
2023/01/09 08:13:57;;;;;;;;;;;5.80;99.90;;;;;;5134939;27;20002;-45
2023/01/09 08:16:22;;;;;;;;;;;5.80;99.90;;;;;;5135739;27;19907;-44
2023/01/09 08:18:47;;;;;;;;;;;5.80;99.90;;;;;;5135807;27;19933;-43
2023/01/09 08:21:13;;;;;;;;;;;5.80;99.90;;;;;;5134710;27;19911;-47
2023/01/09 08:23:38;;;;;;;;;;;5.90;99.90;;;;;;5135622;27;19907;-43
2023/01/09 08:26:04;;;;;;;;;;;5.90;99.90;;;;;;5135766;27;19912;-43
2023/01/09 08:28:30;;;;;;;;;;;5.90;99.90;;;;;;5134782;27;19963;-44
2023/01/09 08:30:55;;;;;;;;;;;5.90;99.90;;;;;;5135667;27;19907;-44
2023/01/09 08:33:21;;;;;;;;;;;5.90;99.90;;;;;;5135555;27;19915;-45
2023/01/09 08:35:46;;;;;;;;;;;5.80;99.90;;;;;;5134780;27;20100;-43
2023/01/09 08:38:12;;;;;;;;;;;5.80;99.90;;;;;;5135453;27;19914;-43
2023/01/09 08:40:38;;;;;;;;;;;5.80;99.90;;;;;;5134674;27;19915;-43
2023/01/09 08:48:32;;;;;;;;;;;5.80;99.90;;;;;;5133087;27;19980;-43
2023/01/09 08:50:57;;;;;;;;;;;5.90;99.90;;;;;;5121688;27;20358;-45
2023/01/09 08:53:22;;;;;;;;;;;5.90;99.90;;;;;;5132118;27;19934;-44
2023/01/09 08:55:48;;;;;;;;;;;6.00;99.90;;;;;;5130266;27;19951;-45
2023/01/09 08:58:13;;;;;;;;;;;6.00;99.90;;;;;;5114766;28;19908;-44
2023/01/09 09:00:39;;;;;;;;;;;6.10;99.90;;;;;;5114566;28;19908;-44
2023/01/09 09:03:04;;;;;;;;;;;6.10;99.90;;;;;;5113693;28;20358;-43
2023/01/09 09:05:31;;;;;;;;;;;6.10;99.90;;;;;;5114379;28;20397;-43
2023/01/09 09:07:56;;;;;;;;;;;6.20;99.90;;;;;;5117765;27;19911;-45
2023/01/09 09:10:23;;;;;;;;;;;6.30;99.90;;;;;;5133997;27;20392;-43
2023/01/09 09:12:52;;;;;;;;;;;6.30;99.90;;;;;;5134513;27;19976;-42
2023/01/09 09:15:25;;;;;;;;;;;6.40;99.90;;;;;;5134731;27;19907;-43
2023/01/09 09:17:57;;;;;;;;;;;6.40;99.90;;;;;;5133809;27;20350;-45
2023/01/09 09:20:24;;;;;;;;;;;6.50;99.90;;;;;;5134493;27;19907;-42
2023/01/09 09:22:50;;;;;;;;;;;6.50;99.90;;;;;;5133601;27;19908;-43
2023/01/09 09:25:16;;;;;;;;;;;6.50;99.90;;;;;;5134505;27;20427;-43
2023/01/09 09:27:41;;;;;;;;;;;6.50;99.90;;;;;;5134556;27;19950;-44
2023/01/09 09:30:07;;;;;;;;;;;6.60;99.90;;;;;;5133663;27;20330;-43
2023/01/09 09:32:33;;;;;;;;;;;6.60;99.90;;;;;;5134217;27;20378;-43
2023/01/09 09:34:58;;;;;;;;;;;6.60;99.90;;;;;;5134353;27;19954;-43
2023/01/09 09:37:24;;;;;;;;;;;6.60;99.90;;;;;;5133535;27;19907;-45
2023/01/09 09:39:49;;;;;;;;;;;6.60;99.90;;;;;;5124451;27;20069;-44
2023/01/09 09:45:25;;;;;;;;;;;6.60;99.90;;;;;;5120737;27;19952;-42
2023/01/09 09:48:04;;;;;;;;;;;6.70;99.90;;;;;;5119267;27;20446;-43
2023/01/09 09:50:49;;;;;;;;;;;6.60;99.90;;;;;;5114267;27;20000;-46
2023/01/09 09:53:15;;;;;;;;;;;6.70;99.90;;;;;;5112297;27;19920;-46
2023/01/09 09:55:41;;;;;;;;;;;6.80;99.90;;;;;;5122751;27;19908;-47
2023/01/09 09:58:14;;;;;;;;;;;6.80;99.90;;;;;;5096761;27;20529;-45
2023/01/09 10:00:40;;;;;;;;;;;6.90;99.90;;;;;;5116811;27;19943;-46
2023/01/09 10:03:10;;;;;;;;;;;6.90;99.90;;;;;;5127199;27;20338;-43
2023/01/09 10:05:39;;;;;;;;;;;7.00;99.90;;;;;;5133053;27;19952;-45
2023/01/09 10:08:27;;;;;;;;;;;7.00;99.90;;;;;;5134228;27;20310;-44
2023/01/09 10:10:53;;;;;;;;;;;7.00;99.90;;;;;;5133857;27;19908;-49
2023/01/09 10:16:18;;;;;;;;;;;7.10;99.90;;;;;;5116184;27;19919;-44
2023/01/09 10:18:52;;;;;;;;;;;7.10;99.90;;;;;;5131530;27;19908;-43
2023/01/09 10:21:23;;;;;;;;;;;7.10;99.90;;;;;;5126719;27;19953;-43
2023/01/09 10:23:58;;;;;;;;;;;7.20;99.90;;;;;;5111662;28;20302;-42
2023/01/09 10:26:28;;;;;;;;;;;7.20;99.90;;;;;;5091888;28;20371;-44
2023/01/09 10:29:12;;;;;;;;;;;7.30;99.90;;;;;;5108625;28;19963;-43
2023/01/09 10:31:44;;;;;;;;;;;7.30;99.90;;;;;;5112865;28;19949;-43
2023/01/09 10:34:13;;;;;;;;;;;7.30;99.90;;;;;;5109969;28;19919;-46
2023/01/09 10:36:59;;;;;;;;;;;7.30;99.90;;;;;;5121852;27;19916;-43
2023/01/09 10:39:34;;;;;;;;;;;7.30;99.90;;;;;;5129881;27;19952;-42
2023/01/09 10:42:02;;;;;;;;;;;7.30;99.90;;;;;;5112670;27;19915;-43
2023/01/09 10:44:35;;;;;;;;;;;7.40;99.90;;;;;;5102183;28;19955;-45
2023/01/09 10:47:02;;;;;;;;;;;7.40;99.90;;;;;;5112842;27;19951;-43
2023/01/09 10:49:28;;;;;;;;;;;7.40;99.90;;;;;;5119238;27;19912;-44
2023/01/09 10:52:09;;;;;;;;;;;7.40;99.90;;;;;;5119987;27;19980;-43
2023/01/09 10:54:39;;;;;;;;;;;7.40;99.90;;;;;;5136389;27;19920;-44
2023/01/09 10:57:18;;;;;;;;;;;7.40;99.90;;;;;;5137581;27;19953;-43
2023/01/09 10:59:43;;;;;;;;;;;7.30;99.90;;;;;;5137327;27;19976;-44
2023/01/09 11:02:22;;;;;;;;;;;7.40;99.90;;;;;;5136424;27;20370;-43
2023/01/09 11:04:48;;;;;;;;;;;7.40;99.90;;;;;;5137184;27;19954;-43
2023/01/09 11:07:18;;;;;;;;;;;7.40;99.90;;;;;;5137124;27;19947;-44
2023/01/09 11:10:04;;;;;;;;;;;7.40;99.90;;;;;;5129717;27;19912;-44
2023/01/09 11:12:31;;;;;;;;;;;7.40;99.90;;;;;;5098765;28;19959;-44
2023/01/09 11:15:14;;;;;;;;;;;7.40;99.90;;;;;;5103769;28;19908;-46
2023/01/09 11:17:40;;;;;;;;;;;7.40;99.90;;;;;;5105841;27;19924;-46
2023/01/09 11:20:14;;;;;;;;;;;7.40;99.90;;;;;;5113190;27;19916;-48
2023/01/09 11:22:43;;;;;;;;;;;7.40;99.90;;;;;;5120589;27;19912;-46
2023/01/09 11:25:11;;;;;;;;;;;7.40;99.90;;;;;;5136978;27;19908;-46
2023/01/09 11:27:36;;;;;;;;;;;7.40;99.90;;;;;;5136815;27;20291;-48
2023/01/09 11:30:27;;;;;;;;;;;7.40;99.90;;;;;;5124215;27;19915;-43
2023/01/09 11:32:54;;;;;;;;;;;7.40;99.90;;;;;;5101860;28;20016;-44
2023/01/09 11:35:22;;;;;;;;;;;7.40;99.90;;;;;;5102622;28;19919;-44
2023/01/09 11:37:55;;;;;;;;;;;7.50;99.90;;;;;;5116985;27;19915;-46
2023/01/09 11:40:21;;;;;;;;;;;7.40;99.90;;;;;;5136522;27;19908;-44
2023/01/09 11:43:04;;;;;;;;;;;7.50;99.90;;;;;;5120976;27;19960;-46
2023/01/09 11:45:31;;;;;;;;;;;7.50;99.90;;;;;;5114935;28;19915;-45
2023/01/09 11:47:57;;;;;;;;;;;7.50;99.90;;;;;;5115825;28;20367;-46
2023/01/09 11:50:23;;;;;;;;;;;7.50;99.90;;;;;;5107778;28;19923;-46
2023/01/09 11:53:07;;;;;;;;;;;7.40;99.90;;;;;;5094999;28;19924;-46
2023/01/09 11:55:32;;;;;;;;;;;7.40;99.90;;;;;;5095462;28;19920;-45
2023/01/09 11:57:58;;;;;;;;;;;7.40;99.90;;;;;;5094561;28;20297;-46
2023/01/09 12:00:25;;;;;;;;;;;7.40;99.90;;;;;;5095161;28;19908;-46
2023/01/09 12:02:56;;;;;;;;;;;7.40;99.90;;;;;;5095096;28;20004;-47
2023/01/09 12:05:30;;;;;;;;;;;7.40;99.90;;;;;;5094926;28;20011;-46
2023/01/09 12:08:16;;;;;;;;;;;7.40;99.90;;;;;;5106462;28;19912;-45
2023/01/09 12:10:48;;;;;;;;;;;7.30;99.90;;;;;;5082004;28;20018;-47
2023/01/09 12:13:32;;;;;;;;;;;7.30;99.90;;;;;;5108928;28;19920;-45
2023/01/09 12:16:06;;;;;;;;;;;7.30;99.90;;;;;;5115093;28;20298;-46
2023/01/09 12:18:40;;;;;;;;;;;7.30;99.90;;;;;;5095345;28;20062;-47
2023/01/09 12:21:24;;;;;;;;;;;7.30;99.90;;;;;;5112650;28;19907;-44
2023/01/09 12:24:05;;;;;;;;;;;7.30;99.90;;;;;;5110619;28;20278;-46
2023/01/09 12:26:41;;;;;;;;;;;7.40;99.90;;;;;;5102713;28;19999;-43
2023/01/09 12:29:25;;;;;;;;;;;7.40;99.90;;;;;;5101793;28;19912;-44
2023/01/09 12:32:10;;;;;;;;;;;7.40;99.90;;;;;;5103337;28;20267;-43
2023/01/09 12:34:51;;;;;;;;;;;7.40;99.90;;;;;;5102428;28;19952;-44
2023/01/09 12:37:32;;;;;;;;;;;7.50;99.90;;;;;;5093788;28;20007;-45
2023/01/09 12:40:05;;;;;;;;;;;7.50;99.90;;;;;;5093075;28;20534;-43
2023/01/09 12:42:52;;;;;;;;;;;7.50;99.90;;;;;;5112706;28;20290;-45
2023/01/09 12:45:29;;;;;;;;;;;7.60;99.90;;;;;;5102950;28;19916;-44
2023/01/09 12:48:21;;;;;;;;;;;7.50;99.90;;;;;;5109648;28;19907;-46
2023/01/09 12:50:58;;;;;;;;;;;7.50;99.90;;;;;;5077609;28;19908;-45
2023/01/09 12:53:25;;;;;;;;;;;7.50;99.90;;;;;;5103599;28;19924;-46
2023/01/09 12:56:20;;;;;;;;;;;7.50;99.90;;;;;;5110751;27;19911;-45
2023/01/09 12:58:51;;;;;;;;;;;7.60;99.90;;;;;;5089205;28;20006;-44
2023/01/09 13:01:20;;;;;;;;;;;7.50;99.90;;;;;;5126527;27;20002;-45
2023/01/09 13:03:57;;;;;;;;;;;7.60;99.90;;;;;;5134429;27;19961;-44
2023/01/09 13:06:23;;;;;;;;;;;7.60;99.90;;;;;;5133804;27;19933;-43
2023/01/09 13:08:52;;;;;;;;;;;7.60;99.90;;;;;;5133398;27;19914;-44
2023/01/09 13:11:21;;;;;;;;;;;7.60;99.90;;;;;;5133698;27;20362;-44
2023/01/09 13:14:10;;;;;;;;;;;7.60;99.90;;;;;;5134723;27;19912;-43
2023/01/09 13:16:40;;;;;;;;;;;7.60;99.90;;;;;;5145801;27;20350;-45
2023/01/09 13:19:13;;;;;;;;;;;7.70;99.90;;;;;;5133920;27;19960;-44
2023/01/09 13:21:39;;;;;;;;;;;7.60;99.90;;;;;;5134096;27;19943;-45
2023/01/09 13:24:05;;;;;;;;;;;7.60;99.90;;;;;;5136688;27;19915;-47
2023/01/09 13:26:39;;;;;;;;;;;7.60;99.90;;;;;;5146320;27;20319;-44
2023/01/09 13:29:11;;;;;;;;;;;7.60;99.90;;;;;;5132876;27;19915;-45
2023/01/09 13:31:51;;;;;;;;;;;7.60;99.90;;;;;;5133647;27;19915;-44
2023/01/09 13:34:19;;;;;;;;;;;7.60;99.90;;;;;;5133529;27;19907;-44
2023/01/09 13:36:46;;;;;;;;;;;7.60;99.90;;;;;;5132904;27;19958;-43
2023/01/09 13:39:22;;;;;;;;;;;7.60;99.90;;;;;;5133498;27;19915;-44
2023/01/09 13:44:35;;;;;;;;;;;7.60;99.90;;;;;;5132164;27;19997;-43
2023/01/09 13:47:01;;;;;;;;;;;7.60;99.90;;;;;;5133290;27;20350;-45
2023/01/09 13:49:35;;;;;;;;;;;7.70;99.90;;;;;;5133425;27;19919;-43
2023/01/09 13:52:04;;;;;;;;;;;7.70;99.90;;;;;;5132431;27;20418;-45
2023/01/09 13:54:49;;;;;;;;;;;7.70;99.90;;;;;;5119318;27;19920;-43
2023/01/09 13:57:15;;;;;;;;;;;7.70;99.90;;;;;;5111743;28;19908;-43
2023/01/09 13:59:41;;;;;;;;;;;7.70;99.90;;;;;;5113551;28;19908;-49
2023/01/09 14:02:28;;;;;;;;;;;7.80;99.90;;;;;;5123639;27;19915;-46
2023/01/09 14:04:54;;;;;;;;;;;7.70;99.90;;;;;;5111879;28;19994;-45
2023/01/09 14:07:21;;;;;;;;;;;7.80;99.90;;;;;;5112214;28;20434;-45
2023/01/09 14:09:49;;;;;;;;;;;7.80;99.90;;;;;;5112606;28;19908;-44
2023/01/09 14:12:15;;;;;;;;;;;7.80;99.90;;;;;;5111415;28;19962;-44
2023/01/09 14:14:44;;;;;;;;;;;7.90;99.90;;;;;;5112685;28;19908;-45
2023/01/09 14:17:17;;;;;;;;;;;7.90;99.90;;;;;;5112431;28;19908;-44
2023/01/09 14:19:43;;;;;;;;;;;7.90;99.90;;;;;;5105321;28;19918;-43
2023/01/09 14:22:22;;;;;;;;;;;7.90;99.90;;;;;;5110561;28;19908;-47
2023/01/09 14:24:51;;;;;;;;;;;7.90;99.90;;;;;;5110588;28;19954;-45
2023/01/09 14:27:35;;;;;;;;;;;8.00;99.90;;;;;;5106373;28;19918;-45
2023/01/09 14:30:21;;;;;;;;;;;8.00;99.90;;;;;;5111555;28;19947;-46
2023/01/09 14:32:54;;;;;;;;;;;8.00;99.90;;;;;;5084973;28;19919;-45
2023/01/09 14:35:25;;;;;;;;;;;7.90;99.90;;;;;;5108578;28;19919;-44
2023/01/09 14:38:00;;;;;;;;;;;7.90;99.90;;;;;;5107716;28;19926;-45
2023/01/09 14:40:26;;;;;;;;;;;8.00;99.90;;;;;;5096782;28;20340;-44
2023/01/09 14:42:53;;;;;;;;;;;7.90;99.90;;;;;;5091041;28;19947;-44
2023/01/09 14:45:23;;;;;;;;;;;7.90;99.90;;;;;;5091187;28;19916;-44
2023/01/09 14:47:54;;;;;;;;;;;7.90;99.90;;;;;;5091216;28;19913;-48
2023/01/09 14:50:26;;;;;;;;;;;7.90;99.90;;;;;;5091487;28;20049;-44
2023/01/09 14:53:09;;;;;;;;;;;7.90;99.90;;;;;;5091773;28;20298;-46
2023/01/09 14:55:38;;;;;;;;;;;7.90;99.90;;;;;;5111261;28;19920;-44
2023/01/09 14:58:21;;;;;;;;;;;7.90;99.90;;;;;;5111935;28;19908;-44